createdAt,value
2023-02-26T00:01:19.942Z,1.67
2023-02-26T00:03:49.601Z,1.60
2023-02-26T00:06:16.407Z,2.50
2023-02-26T00:08:43.200Z,1.60
2023-02-26T00:11:11.138Z,2.50
2023-02-26T00:13:39.712Z,2.10
2023-02-26T00:16:18.829Z,2.20
2023-02-26T00:18:47.452Z,2.60
2023-02-26T00:21:17.060Z,1.50
2023-02-26T00:23:44.072Z,1.70
2023-02-26T00:26:11.003Z,1.80
2023-02-26T00:28:38.530Z,1.40
2023-02-26T00:31:06.079Z,1.93
2023-02-26T00:33:33.734Z,2.23
2023-02-26T00:36:19.563Z,1.80
2023-02-26T00:39:01.225Z,1.53
2023-02-26T00:41:29.645Z,1.63
2023-02-26T00:43:56.978Z,1.20
2023-02-26T00:46:34.301Z,1.70
2023-02-26T00:49:07.017Z,1.43
2023-02-26T00:51:42.725Z,1.20
2023-02-26T00:54:19.469Z,1.60
2023-02-26T00:56:46.205Z,1.13
2023-02-26T00:59:12.875Z,2.00
2023-02-26T01:01:39.752Z,1.87
2023-02-26T01:04:07.323Z,1.60
2023-02-26T01:06:39.387Z,1.27
2023-02-26T01:09:12.907Z,1.30
2023-02-26T01:11:39.882Z,1.30
2023-02-26T01:14:07.218Z,1.37
2023-02-26T01:16:39.429Z,1.63
2023-02-26T01:19:18.422Z,1.00
2023-02-26T01:21:51.026Z,1.10
2023-02-26T01:24:20.401Z,1.23
2023-02-26T01:26:47.377Z,0.97
2023-02-26T01:29:14.426Z,1.67
2023-02-26T01:31:49.176Z,1.50
2023-02-26T01:34:19.070Z,1.13
2023-02-26T01:36:56.181Z,1.20
2023-02-26T01:39:28.724Z,1.40
2023-02-26T01:42:00.349Z,1.53
2023-02-26T01:44:34.201Z,1.03
2023-02-26T01:47:17.583Z,1.10
2023-02-26T01:49:45.812Z,0.90
2023-02-26T01:52:49.392Z,1.03
2023-02-26T01:55:21.099Z,0.90
2023-02-26T01:57:48.337Z,1.03
2023-02-26T02:00:16.393Z,1.27
2023-02-26T02:02:43.536Z,0.70
2023-02-26T02:05:14.997Z,0.90
2023-02-26T02:07:41.687Z,1.73
2023-02-26T02:10:09.361Z,0.90
2023-02-26T02:12:42.973Z,1.13
2023-02-26T02:15:14.370Z,0.50
2023-02-26T02:17:50.242Z,1.20
2023-02-26T02:20:49.865Z,0.80
2023-02-26T02:23:19.348Z,1.07
2023-02-26T02:26:14.233Z,0.70
2023-02-26T02:28:56.958Z,0.93
2023-02-26T02:31:28.319Z,1.20
2023-02-26T02:34:03.421Z,0.93
2023-02-26T02:36:36.417Z,1.23
2023-02-26T02:39:08.747Z,0.83
2023-02-26T02:41:40.017Z,1.00
2023-02-26T02:44:12.327Z,1.30
2023-02-26T02:46:43.305Z,0.83
2023-02-26T02:49:13.276Z,0.97
2023-02-26T02:51:46.344Z,2.20
2023-02-26T02:54:17.502Z,0.83
2023-02-26T02:56:48.008Z,1.00
2023-02-26T02:59:20.489Z,1.10
2023-02-26T03:01:52.854Z,0.90
2023-02-26T03:04:19.859Z,1.10
2023-02-26T03:06:46.642Z,1.10
2023-02-26T03:09:13.595Z,1.40
2023-02-26T03:11:40.352Z,1.37
2023-02-26T03:14:09.029Z,1.20
2023-02-26T03:17:05.137Z,1.47
2023-02-26T03:19:37.961Z,1.20
2023-02-26T03:22:09.021Z,0.80
2023-02-26T03:24:40.497Z,1.20
2023-02-26T03:27:13.801Z,1.33
2023-02-26T03:29:47.128Z,0.67
2023-02-26T03:32:19.515Z,0.87
2023-02-26T03:34:50.335Z,1.23
2023-02-26T03:37:21.877Z,0.83
2023-02-26T03:39:52.380Z,0.80
2023-02-26T03:42:24.599Z,0.60
2023-02-26T03:44:53.837Z,0.90
2023-02-26T03:47:22.672Z,1.43
2023-02-26T03:49:53.245Z,0.70
2023-02-26T03:52:21.796Z,0.97
2023-02-26T03:54:53.601Z,1.00
2023-02-26T03:57:20.422Z,0.90
2023-02-26T03:59:47.180Z,0.83
2023-02-26T04:02:18.284Z,1.10
2023-02-26T04:04:51.416Z,0.90
2023-02-26T04:07:18.894Z,0.90
2023-02-26T04:09:48.472Z,0.90
2023-02-26T04:12:15.779Z,0.97
2023-02-26T04:14:42.462Z,0.80
2023-02-26T04:17:09.201Z,0.83
2023-02-26T04:19:35.871Z,1.00
2023-02-26T04:22:03.953Z,0.70
2023-02-26T04:24:30.708Z,0.90
2023-02-26T04:26:57.373Z,0.83
2023-02-26T04:29:24.037Z,0.70
2023-02-26T04:31:50.897Z,0.90
2023-02-26T04:34:17.666Z,1.00
2023-02-26T04:36:44.343Z,1.43
2023-02-26T04:39:12.526Z,1.00
2023-02-26T04:41:39.404Z,1.53
2023-02-26T04:44:06.321Z,0.90
2023-02-26T04:46:33.666Z,1.13
2023-02-26T04:49:00.325Z,1.43
2023-02-26T04:51:27.002Z,1.30
2023-02-26T04:53:53.739Z,0.97
2023-02-26T04:56:22.011Z,0.70
2023-02-26T04:58:49.018Z,0.90
2023-02-26T05:01:15.873Z,1.10
2023-02-26T05:03:42.621Z,1.07
2023-02-26T05:06:09.349Z,1.00
2023-02-26T05:08:36.066Z,1.80
2023-02-26T05:11:02.789Z,1.07
2023-02-26T05:13:30.748Z,1.00
2023-02-26T05:15:57.449Z,1.23
2023-02-26T05:18:24.149Z,0.97
2023-02-26T05:20:53.210Z,1.17
2023-02-26T05:23:20.188Z,0.80
2023-02-26T05:25:46.919Z,0.90
2023-02-26T05:28:13.596Z,1.00
2023-02-26T05:30:41.726Z,1.33
2023-02-26T05:33:08.460Z,1.03
2023-02-26T05:35:35.228Z,0.90
2023-02-26T05:38:01.920Z,1.10
2023-02-26T05:40:28.678Z,1.00
2023-02-26T05:42:55.368Z,0.50
2023-02-26T05:45:22.122Z,1.03
2023-02-26T05:47:50.145Z,0.73
2023-02-26T05:50:17.052Z,0.80
2023-02-26T05:52:43.710Z,0.90
2023-02-26T05:55:10.753Z,1.67
2023-02-26T05:57:37.463Z,0.90
2023-02-26T06:00:06.200Z,0.70
2023-02-26T06:02:32.902Z,0.87
2023-02-26T06:05:00.877Z,0.90
2023-02-26T06:07:27.551Z,0.63
2023-02-26T06:09:54.292Z,0.70
2023-02-26T06:12:21.041Z,1.30
2023-02-26T06:14:47.812Z,0.50
2023-02-26T06:17:14.573Z,1.00
2023-02-26T06:19:41.260Z,0.80
2023-02-26T06:22:09.225Z,0.60
2023-02-26T06:24:35.976Z,0.90
2023-02-26T06:27:02.632Z,0.90
2023-02-26T06:29:29.428Z,1.03
2023-02-26T06:31:56.311Z,0.70
2023-02-26T06:34:23.156Z,0.70
2023-02-26T06:36:49.935Z,1.17
2023-02-26T06:39:18.162Z,0.60
2023-02-26T06:41:44.812Z,1.63
2023-02-26T06:44:12.206Z,0.80
2023-02-26T06:46:38.914Z,1.20
2023-02-26T06:49:06.134Z,0.77
2023-02-26T06:51:33.256Z,0.80
2023-02-26T06:54:00.032Z,1.10
2023-02-26T06:56:28.679Z,0.90
2023-02-26T06:58:55.599Z,0.80
2023-02-26T07:01:22.423Z,1.10
2023-02-26T07:03:49.105Z,0.70
2023-02-26T07:06:26.882Z,0.90
2023-02-26T07:08:55.225Z,1.10
2023-02-26T07:11:22.060Z,0.50
2023-02-26T07:13:50.194Z,0.80
2023-02-26T07:16:16.877Z,0.70
2023-02-26T07:18:43.637Z,2.73
2023-02-26T07:21:10.409Z,0.80
2023-02-26T07:23:37.175Z,1.00
2023-02-26T07:26:04.248Z,1.07
2023-02-26T07:28:30.966Z,1.07
2023-02-26T07:30:59.157Z,1.10
2023-02-26T07:33:25.974Z,1.37
2023-02-26T07:35:52.633Z,0.77
2023-02-26T07:38:19.823Z,0.47
2023-02-26T07:40:46.668Z,0.70
2023-02-26T07:43:13.533Z,0.97
2023-02-26T07:45:40.253Z,0.90
2023-02-26T07:48:08.313Z,1.00
2023-02-26T07:50:35.106Z,1.10
2023-02-26T07:53:01.900Z,1.17
2023-02-26T07:55:28.612Z,1.10
2023-02-26T07:57:55.536Z,0.90
2023-02-26T08:00:22.556Z,0.80
2023-02-26T08:02:49.184Z,0.90
2023-02-26T08:05:17.454Z,0.80
2023-02-26T08:07:44.169Z,0.70
2023-02-26T08:10:12.338Z,0.90
2023-02-26T08:12:39.046Z,0.77
2023-02-26T08:15:06.956Z,0.70
2023-02-26T08:17:33.625Z,0.60
2023-02-26T08:20:00.347Z,1.13
2023-02-26T08:22:28.325Z,1.17
2023-02-26T08:24:55.040Z,0.70
2023-02-26T08:27:21.866Z,0.50
2023-02-26T08:29:48.545Z,0.40
2023-02-26T08:32:15.353Z,0.83
2023-02-26T08:34:42.207Z,0.90
2023-02-26T08:37:09.337Z,0.47
2023-02-26T08:39:37.434Z,0.80
2023-02-26T08:42:04.584Z,0.97
2023-02-26T08:44:31.267Z,0.80
2023-02-26T08:46:58.032Z,0.97
2023-02-26T08:49:24.782Z,0.70
2023-02-26T08:51:51.466Z,1.10
2023-02-26T08:54:18.141Z,0.50
2023-02-26T08:56:46.224Z,0.87
2023-02-26T08:59:12.884Z,0.40
2023-02-26T09:01:39.606Z,0.50
2023-02-26T09:04:06.223Z,0.70
2023-02-26T09:06:32.910Z,1.13
2023-02-26T09:08:59.693Z,0.60
2023-02-26T09:11:26.821Z,0.50
2023-02-26T09:13:55.006Z,0.90
2023-02-26T09:16:21.688Z,0.67
2023-02-26T09:18:48.592Z,0.73
2023-02-26T09:21:15.234Z,1.07
2023-02-26T09:23:41.971Z,0.67
2023-02-26T09:26:08.759Z,0.70
2023-02-26T09:28:35.446Z,1.00
2023-02-26T09:31:03.957Z,1.00
2023-02-26T09:33:30.686Z,0.70
2023-02-26T09:35:57.365Z,1.00
2023-02-26T09:38:24.027Z,1.03
2023-02-26T09:40:53.963Z,1.20
2023-02-26T09:43:48.824Z,1.20
2023-02-26T09:46:29.119Z,0.77
2023-02-26T09:49:04.581Z,1.07
2023-02-26T09:51:34.033Z,0.70
2023-02-26T09:54:04.820Z,0.97
2023-02-26T09:56:35.579Z,0.90
2023-02-26T09:59:02.356Z,0.97
2023-02-26T10:01:38.370Z,1.00
2023-02-26T10:04:18.836Z,0.83
2023-02-26T10:06:58.080Z,0.97
2023-02-26T10:09:37.694Z,1.03
2023-02-26T10:12:09.598Z,0.60
2023-02-26T10:14:40.087Z,0.60
2023-02-26T10:17:19.304Z,0.93
2023-02-26T10:19:50.437Z,0.60
2023-02-26T10:22:24.278Z,1.17
2023-02-26T10:24:55.790Z,0.83
2023-02-26T10:27:36.803Z,0.60
2023-02-26T10:30:07.793Z,0.50
2023-02-26T10:32:40.896Z,1.00
2023-02-26T10:35:11.251Z,0.63
2023-02-26T10:37:46.246Z,0.60
2023-02-26T10:40:17.302Z,0.60
2023-02-26T10:42:47.507Z,0.70
2023-02-26T10:45:26.645Z,0.80
2023-02-26T10:48:07.236Z,0.57
2023-02-26T10:50:34.865Z,0.80
2023-02-26T10:53:02.222Z,0.30
2023-02-26T10:55:41.337Z,0.60
2023-02-26T10:58:13.279Z,0.50
2023-02-26T11:00:41.544Z,0.90
2023-02-26T11:03:16.390Z,0.90
2023-02-26T11:05:43.212Z,0.80
2023-02-26T11:08:15.923Z,0.47
2023-02-26T11:10:48.759Z,0.50
2023-02-26T11:13:15.470Z,0.90
2023-02-26T11:15:44.053Z,0.90
2023-02-26T11:18:15.842Z,0.73
2023-02-26T11:20:45.267Z,1.00
2023-02-26T11:23:14.405Z,0.60
2023-02-26T11:25:41.213Z,0.83
2023-02-26T11:28:21.828Z,0.50
2023-02-26T11:30:49.429Z,0.50
2023-02-26T11:33:21.245Z,0.60
2023-02-26T11:35:49.105Z,0.60
2023-02-26T11:38:21.753Z,1.00
2023-02-26T11:40:52.443Z,0.70
2023-02-26T11:43:21.764Z,1.10
2023-02-26T11:45:52.655Z,0.87
2023-02-26T11:48:24.578Z,0.90
2023-02-26T11:50:56.361Z,0.30
2023-02-26T11:53:26.760Z,0.50
2023-02-26T11:55:59.026Z,0.60
2023-02-26T11:58:27.972Z,0.73
2023-02-26T12:00:58.850Z,1.07
2023-02-26T12:03:31.128Z,0.90
2023-02-26T12:05:59.410Z,0.87
2023-02-26T12:08:29.948Z,0.47
2023-02-26T12:11:14.174Z,0.67
2023-02-26T12:13:48.655Z,0.80
2023-02-26T12:16:20.200Z,0.60
2023-02-26T12:18:59.195Z,0.90
2023-02-26T12:21:41.697Z,0.67
2023-02-26T12:24:39.145Z,0.80
2023-02-26T12:27:16.134Z,0.60
2023-02-26T12:30:02.862Z,0.50
2023-02-26T12:32:50.533Z,0.30
2023-02-26T12:35:46.398Z,0.90
2023-02-26T12:38:25.060Z,0.30
2023-02-26T12:41:19.329Z,0.63
2023-02-26T12:43:48.704Z,0.77
2023-02-26T12:46:45.326Z,0.63
2023-02-26T12:49:53.281Z,0.60
2023-02-26T12:52:40.744Z,0.70
2023-02-26T12:55:17.392Z,0.50
2023-02-26T12:58:11.174Z,0.60
2023-02-26T13:00:53.228Z,0.50
2023-02-26T13:03:43.468Z,0.70
2023-02-26T13:06:45.900Z,0.50
2023-02-26T13:09:24.328Z,0.80
2023-02-26T13:12:01.697Z,0.50
2023-02-26T13:14:39.427Z,0.50
2023-02-26T13:17:11.667Z,0.30
2023-02-26T13:19:44.234Z,0.57
2023-02-26T13:22:18.886Z,0.50
2023-02-26T13:24:53.203Z,0.40
2023-02-26T13:27:24.474Z,0.70
2023-02-26T13:29:57.490Z,0.87
2023-02-26T13:32:27.178Z,0.67
2023-02-26T13:34:57.318Z,0.50
2023-02-26T13:37:27.294Z,0.73
2023-02-26T13:40:12.178Z,0.30
2023-02-26T13:42:42.486Z,0.50
2023-02-26T13:45:25.413Z,0.40
2023-02-26T13:48:02.472Z,0.70
2023-02-26T13:50:39.155Z,0.30
2023-02-26T13:53:44.306Z,0.50
2023-02-26T13:56:17.418Z,2.37
2023-02-26T13:58:49.251Z,0.80
2023-02-26T14:01:19.028Z,0.40
2023-02-26T14:03:49.654Z,0.57
2023-02-26T14:06:25.968Z,0.53
2023-02-26T14:08:55.338Z,0.70
2023-02-26T14:12:01.101Z,0.63
2023-02-26T14:14:36.787Z,0.43
2023-02-26T14:17:28.471Z,0.50
2023-02-26T14:20:22.721Z,0.37
2023-02-26T14:23:10.579Z,0.50
2023-02-26T14:25:38.922Z,0.80
2023-02-26T14:28:32.870Z,0.50
2023-02-26T14:31:12.143Z,0.53
2023-02-26T14:33:42.935Z,0.50
2023-02-26T14:36:18.522Z,0.50
2023-02-26T14:38:46.669Z,0.40
2023-02-26T14:41:25.859Z,0.80
2023-02-26T14:44:00.500Z,1.40
2023-02-26T14:46:27.641Z,0.57
2023-02-26T14:48:54.555Z,0.53
2023-02-26T14:51:29.832Z,0.40
2023-02-26T14:54:12.347Z,0.50
2023-02-26T14:56:52.014Z,0.40
2023-02-26T14:59:46.276Z,0.70
2023-02-26T15:02:26.646Z,0.40
2023-02-26T15:05:21.103Z,0.50
2023-02-26T15:08:16.350Z,0.60
2023-02-26T15:11:02.762Z,0.40
2023-02-26T15:13:42.139Z,0.43
2023-02-26T15:16:20.285Z,0.50
2023-02-26T15:19:01.593Z,0.40
2023-02-26T15:21:37.549Z,0.40
2023-02-26T15:24:04.777Z,0.87
2023-02-26T15:26:34.874Z,0.67
2023-02-26T15:29:06.154Z,0.50
2023-02-26T15:31:37.445Z,0.50
2023-02-26T15:34:04.352Z,0.70
2023-02-26T15:36:31.839Z,0.97
2023-02-26T15:39:00.602Z,0.70
2023-02-26T15:41:30.286Z,0.90
2023-02-26T15:44:00.481Z,0.60
2023-02-26T15:46:30.372Z,0.67
2023-02-26T15:49:02.293Z,0.57
2023-02-26T15:51:29.187Z,1.10
2023-02-26T15:53:56.045Z,0.40
2023-02-26T15:56:25.940Z,0.60
2023-02-26T15:58:55.860Z,0.43
2023-02-26T16:01:24.715Z,0.70
2023-02-26T16:03:53.769Z,0.60
2023-02-26T16:06:25.667Z,1.13
2023-02-26T16:08:52.596Z,0.37
2023-02-26T16:11:21.537Z,0.60
2023-02-26T16:13:51.728Z,0.80
2023-02-26T16:16:23.957Z,0.77
2023-02-26T16:18:52.720Z,0.70
2023-02-26T16:21:27.613Z,0.50
2023-02-26T16:23:56.696Z,0.73
2023-02-26T16:26:28.005Z,0.50
2023-02-26T16:29:00.277Z,0.70
2023-02-26T16:31:27.900Z,1.20
2023-02-26T16:33:58.098Z,0.80
2023-02-26T16:36:29.439Z,1.07
2023-02-26T16:39:02.901Z,0.80
2023-02-26T16:41:33.058Z,0.97
2023-02-26T16:44:02.223Z,1.60
2023-02-26T16:46:35.286Z,1.87
2023-02-26T16:49:04.862Z,2.23
2023-02-26T16:51:37.130Z,1.83
2023-02-26T16:54:08.598Z,2.73
2023-02-26T16:56:39.536Z,1.70
2023-02-26T16:59:12.054Z,2.37
2023-02-26T17:01:44.893Z,1.40
2023-02-26T17:04:15.542Z,1.00
2023-02-26T17:06:43.681Z,0.97
2023-02-26T17:09:30.431Z,0.80
2023-02-26T17:12:05.577Z,1.30
2023-02-26T17:14:37.047Z,1.17
2023-02-26T17:17:03.701Z,1.40
2023-02-26T17:19:30.395Z,1.30
2023-02-26T17:21:58.615Z,1.43
2023-02-26T17:24:31.909Z,4.07
2023-02-26T17:26:59.515Z,5.73
2023-02-26T17:29:31.395Z,17.70
2023-02-26T17:31:58.185Z,10.63
2023-02-26T17:34:24.903Z,12.73
2023-02-26T17:36:58.378Z,2.43
2023-02-26T17:39:25.092Z,1.43
2023-02-26T17:41:51.882Z,1.23
2023-02-26T17:44:18.621Z,2.80
2023-02-26T17:46:45.613Z,6.90
2023-02-26T17:49:12.811Z,2.10
2023-02-26T17:51:39.610Z,0.90
2023-02-26T17:54:07.799Z,1.77
2023-02-26T17:56:35.318Z,1.30
2023-02-26T17:59:02.182Z,1.70
2023-02-26T18:01:29.261Z,1.90
2023-02-26T18:03:56.729Z,1.60
2023-02-26T18:06:25.056Z,1.97
2023-02-26T18:08:51.919Z,2.30
2023-02-26T18:11:20.055Z,2.00
2023-02-26T18:13:46.748Z,1.57
2023-02-26T18:16:17.990Z,1.80
2023-02-26T18:18:44.737Z,1.93
2023-02-26T18:21:11.520Z,2.03
2023-02-26T18:23:38.281Z,2.30
2023-02-26T18:26:05.267Z,2.70
2023-02-26T18:28:33.561Z,1.97
2023-02-26T18:31:00.342Z,2.40
2023-02-26T18:33:27.206Z,3.50
2023-02-26T18:35:55.997Z,2.50
2023-02-26T18:38:25.549Z,1.97
2023-02-26T18:40:52.721Z,2.07
2023-02-26T18:43:19.686Z,2.23
2023-02-26T18:45:49.368Z,2.00
2023-02-26T18:48:17.440Z,1.90
2023-02-26T18:50:44.752Z,2.20
2023-02-26T18:53:12.133Z,1.40
2023-02-26T18:55:39.450Z,1.20
2023-02-26T18:58:06.220Z,1.60
2023-02-26T19:00:33.046Z,1.40
2023-02-26T19:03:01.200Z,1.63
2023-02-26T19:05:28.030Z,1.83
2023-02-26T19:07:55.064Z,2.10
2023-02-26T19:10:21.981Z,1.50
2023-02-26T19:12:48.778Z,3.10
2023-02-26T19:15:15.437Z,3.73
2023-02-26T19:17:42.489Z,3.27
2023-02-26T19:20:12.056Z,3.33
2023-02-26T19:22:39.316Z,3.30
2023-02-26T19:25:07.053Z,3.20
2023-02-26T19:27:34.035Z,3.70
2023-02-26T19:30:00.814Z,4.40
2023-02-26T19:32:27.889Z,4.27
2023-02-26T19:34:54.648Z,3.87
2023-02-26T19:37:23.404Z,3.30
2023-02-26T19:39:50.126Z,2.60
2023-02-26T19:42:17.436Z,2.10
2023-02-26T19:44:44.184Z,2.47
2023-02-26T19:47:10.853Z,2.70
2023-02-26T19:49:37.716Z,2.77
2023-02-26T19:52:04.719Z,2.17
2023-02-26T19:54:32.967Z,2.70
2023-02-26T19:56:59.803Z,2.23
2023-02-26T19:59:26.790Z,1.60
2023-02-26T20:01:53.545Z,2.27
2023-02-26T20:04:20.612Z,1.67
2023-02-26T20:06:47.445Z,1.50
2023-02-26T20:09:14.273Z,1.50
2023-02-26T20:11:42.504Z,1.57
2023-02-26T20:14:09.454Z,2.23
2023-02-26T20:16:36.327Z,1.47
2023-02-26T20:19:03.243Z,1.60
2023-02-26T20:21:30.152Z,1.60
2023-02-26T20:23:57.012Z,2.93
2023-02-26T20:26:24.208Z,3.07
2023-02-26T20:28:52.429Z,3.07
2023-02-26T20:31:19.788Z,2.83
2023-02-26T20:33:46.973Z,2.50
2023-02-26T20:36:13.963Z,1.00
2023-02-26T20:38:41.062Z,1.40
2023-02-26T20:41:07.814Z,0.97
2023-02-26T20:43:35.002Z,1.27
2023-02-26T20:46:03.134Z,1.77
2023-02-26T20:48:30.302Z,1.50
2023-02-26T20:50:59.759Z,1.37
2023-02-26T20:53:26.892Z,1.37
2023-02-26T20:55:55.575Z,1.00
2023-02-26T20:58:22.772Z,1.30
2023-02-26T21:00:49.701Z,0.77
2023-02-26T21:03:18.109Z,0.83
2023-02-26T21:05:44.926Z,0.77
2023-02-26T21:08:11.805Z,0.87
2023-02-26T21:10:38.616Z,1.20
2023-02-26T21:13:05.426Z,1.00
2023-02-26T21:15:32.396Z,1.13
2023-02-26T21:17:59.444Z,1.10
2023-02-26T21:20:28.245Z,1.23
2023-02-26T21:22:55.033Z,1.30
2023-02-26T21:25:21.920Z,0.93
2023-02-26T21:27:48.906Z,1.50
2023-02-26T21:30:16.697Z,1.00
2023-02-26T21:32:45.018Z,1.37
2023-02-26T21:35:12.288Z,1.90
2023-02-26T21:37:41.110Z,1.33
2023-02-26T21:40:09.226Z,1.30
2023-02-26T21:42:36.211Z,2.00
2023-02-26T21:45:03.250Z,1.40
2023-02-26T21:47:30.223Z,1.73
2023-02-26T21:49:57.275Z,1.93
2023-02-26T21:52:24.129Z,1.40
2023-02-26T21:54:52.375Z,1.30
2023-02-26T21:57:19.151Z,1.27
2023-02-26T21:59:46.312Z,1.40
2023-02-26T22:02:13.203Z,1.67
2023-02-26T22:04:40.493Z,1.70
2023-02-26T22:07:07.537Z,1.43
2023-02-26T22:09:34.484Z,1.20
2023-02-26T22:12:03.109Z,1.53
2023-02-26T22:14:33.339Z,1.37
2023-02-26T22:17:05.313Z,1.40
2023-02-26T22:19:32.111Z,1.60
2023-02-26T22:21:58.973Z,1.60
2023-02-26T22:24:26.106Z,1.80
2023-02-26T22:26:53.300Z,1.30
2023-02-26T22:29:22.138Z,1.50
2023-02-26T22:31:49.039Z,1.53
2023-02-26T22:34:15.917Z,0.97
2023-02-26T22:36:42.746Z,1.43
2023-02-26T22:39:09.766Z,2.37
2023-02-26T22:41:37.345Z,2.23
2023-02-26T22:44:05.519Z,1.70
2023-02-26T22:46:33.737Z,1.77
2023-02-26T22:49:01.108Z,1.67
2023-02-26T22:51:28.303Z,1.50
2023-02-26T22:53:55.361Z,1.63
2023-02-26T22:56:22.195Z,1.70
2023-02-26T22:58:48.934Z,2.10
2023-02-26T23:01:15.905Z,1.23
2023-02-26T23:03:44.270Z,1.87
2023-02-26T23:06:11.370Z,1.20
2023-02-26T23:08:38.545Z,1.90
2023-02-26T23:11:06.638Z,1.60
2023-02-26T23:13:35.523Z,1.10
2023-02-26T23:16:03.193Z,1.33
2023-02-26T23:18:30.607Z,1.10
2023-02-26T23:20:59.099Z,0.90
2023-02-26T23:23:25.952Z,1.27
2023-02-26T23:25:52.749Z,1.10
2023-02-26T23:28:19.780Z,1.27
2023-02-26T23:30:47.196Z,1.30
2023-02-26T23:33:14.051Z,1.27
2023-02-26T23:35:41.512Z,1.40
2023-02-26T23:38:09.772Z,1.80
2023-02-26T23:40:36.797Z,1.20
2023-02-26T23:43:04.171Z,1.13
2023-02-26T23:45:30.966Z,1.07
2023-02-26T23:47:57.728Z,2.00
2023-02-26T23:50:24.726Z,1.60
2023-02-26T23:52:51.853Z,1.27
2023-02-26T23:55:22.716Z,1.13
2023-02-26T23:57:49.613Z,1.23
